sensor_id;sensor_type;location;lat;lon;timestamp;P1;durP1;ratioP1;P2;durP2;ratioP2
40489;SDS011;26196;52.302;10.572;2022-07-23T00:01:04;3.25;;;2.33;;
40489;SDS011;26196;52.302;10.572;2022-07-23T00:05:05;4.25;;;2.75;;
40489;SDS011;26196;52.302;10.572;2022-07-23T00:09:06;2.88;;;2.40;;
40489;SDS011;26196;52.302;10.572;2022-07-23T00:13:06;4.82;;;2.50;;
40489;SDS011;26196;52.302;10.572;2022-07-23T00:17:07;3.40;;;2.60;;
40489;SDS011;26196;52.302;10.572;2022-07-23T00:21:07;3.15;;;2.38;;
40489;SDS011;26196;52.302;10.572;2022-07-23T00:25:07;2.85;;;2.50;;
40489;SDS011;26196;52.302;10.572;2022-07-23T00:29:08;3.80;;;2.60;;
40489;SDS011;26196;52.302;10.572;2022-07-23T00:33:08;3.45;;;2.58;;
40489;SDS011;26196;52.302;10.572;2022-07-23T00:37:09;2.90;;;2.40;;
40489;SDS011;26196;52.302;10.572;2022-07-23T00:41:09;6.32;;;2.95;;
40489;SDS011;26196;52.302;10.572;2022-07-23T00:45:10;4.07;;;2.60;;
40489;SDS011;26196;52.302;10.572;2022-07-23T00:49:11;3.25;;;2.70;;
40489;SDS011;26196;52.302;10.572;2022-07-23T00:53:11;3.45;;;3.05;;
40489;SDS011;26196;52.302;10.572;2022-07-23T00:57:12;3.20;;;2.70;;
40489;SDS011;26196;52.302;10.572;2022-07-23T01:01:13;3.20;;;2.90;;
40489;SDS011;26196;52.302;10.572;2022-07-23T01:05:13;4.03;;;2.65;;
40489;SDS011;26196;52.302;10.572;2022-07-23T01:09:14;3.13;;;2.83;;
40489;SDS011;26196;52.302;10.572;2022-07-23T01:13:15;4.03;;;3.10;;
40489;SDS011;26196;52.302;10.572;2022-07-23T01:17:15;3.05;;;2.50;;
40489;SDS011;26196;52.302;10.572;2022-07-23T01:21:16;4.55;;;2.80;;
40489;SDS011;26196;52.302;10.572;2022-07-23T01:25:18;3.22;;;2.45;;
40489;SDS011;26196;52.302;10.572;2022-07-23T01:29:19;3.72;;;3.38;;
40489;SDS011;26196;52.302;10.572;2022-07-23T01:33:21;3.17;;;2.70;;
40489;SDS011;26196;52.302;10.572;2022-07-23T01:37:21;3.25;;;2.67;;
40489;SDS011;26196;52.302;10.572;2022-07-23T01:41:22;3.05;;;2.63;;
40489;SDS011;26196;52.302;10.572;2022-07-23T01:45:22;4.00;;;2.88;;
40489;SDS011;26196;52.302;10.572;2022-07-23T01:49:23;3.72;;;2.90;;
40489;SDS011;26196;52.302;10.572;2022-07-23T01:53:23;3.45;;;2.67;;
40489;SDS011;26196;52.302;10.572;2022-07-23T01:57:24;2.78;;;2.58;;
40489;SDS011;26196;52.302;10.572;2022-07-23T02:01:24;6.85;;;3.65;;
40489;SDS011;26196;52.302;10.572;2022-07-23T02:05:25;8.40;;;2.90;;
40489;SDS011;26196;52.302;10.572;2022-07-23T02:09:25;3.35;;;3.00;;
40489;SDS011;26196;52.302;10.572;2022-07-23T02:13:26;4.50;;;3.00;;
40489;SDS011;26196;52.302;10.572;2022-07-23T02:17:26;3.70;;;2.67;;
40489;SDS011;26196;52.302;10.572;2022-07-23T02:21:27;4.38;;;3.20;;
40489;SDS011;26196;52.302;10.572;2022-07-23T02:25:27;5.70;;;2.75;;
40489;SDS011;26196;52.302;10.572;2022-07-23T02:29:28;3.05;;;2.53;;
40489;SDS011;26196;52.302;10.572;2022-07-23T02:33:28;3.42;;;3.00;;
40489;SDS011;26196;52.302;10.572;2022-07-23T02:37:29;2.70;;;2.10;;
40489;SDS011;26196;52.302;10.572;2022-07-23T02:41:29;2.85;;;2.40;;
40489;SDS011;26196;52.302;10.572;2022-07-23T02:45:30;4.82;;;2.60;;
40489;SDS011;26196;52.302;10.572;2022-07-23T02:49:30;3.65;;;2.47;;
40489;SDS011;26196;52.302;10.572;2022-07-23T02:53:31;3.15;;;2.83;;
40489;SDS011;26196;52.302;10.572;2022-07-23T02:57:31;3.97;;;2.63;;
40489;SDS011;26196;52.302;10.572;2022-07-23T03:01:32;3.30;;;2.67;;
40489;SDS011;26196;52.302;10.572;2022-07-23T03:05:32;4.32;;;2.83;;
40489;SDS011;26196;52.302;10.572;2022-07-23T03:09:33;3.47;;;3.00;;
40489;SDS011;26196;52.302;10.572;2022-07-23T03:13:34;4.68;;;3.00;;
40489;SDS011;26196;52.302;10.572;2022-07-23T03:17:34;2.45;;;2.17;;
40489;SDS011;26196;52.302;10.572;2022-07-23T03:21:35;4.10;;;2.92;;
40489;SDS011;26196;52.302;10.572;2022-07-23T03:25:38;4.30;;;2.97;;
40489;SDS011;26196;52.302;10.572;2022-07-23T03:29:39;4.93;;;2.83;;
40489;SDS011;26196;52.302;10.572;2022-07-23T03:33:39;4.93;;;3.00;;
40489;SDS011;26196;52.302;10.572;2022-07-23T03:37:41;3.67;;;2.53;;
40489;SDS011;26196;52.302;10.572;2022-07-23T03:41:41;3.45;;;2.90;;
40489;SDS011;26196;52.302;10.572;2022-07-23T03:45:42;5.05;;;2.75;;
40489;SDS011;26196;52.302;10.572;2022-07-23T03:49:42;3.03;;;2.65;;
40489;SDS011;26196;52.302;10.572;2022-07-23T03:53:43;3.47;;;2.42;;
40489;SDS011;26196;52.302;10.572;2022-07-23T03:57:43;5.07;;;2.78;;
40489;SDS011;26196;52.302;10.572;2022-07-23T04:01:44;2.80;;;2.45;;
40489;SDS011;26196;52.302;10.572;2022-07-23T04:05:44;4.55;;;2.60;;
40489;SDS011;26196;52.302;10.572;2022-07-23T04:09:45;3.33;;;2.10;;
40489;SDS011;26196;52.302;10.572;2022-07-23T04:13:45;5.32;;;2.85;;
40489;SDS011;26196;52.302;10.572;2022-07-23T04:17:46;3.95;;;3.10;;
40489;SDS011;26196;52.302;10.572;2022-07-23T04:21:46;4.40;;;2.60;;
40489;SDS011;26196;52.302;10.572;2022-07-23T04:25:47;3.38;;;2.75;;
40489;SDS011;26196;52.302;10.572;2022-07-23T04:29:47;5.78;;;2.60;;
40489;SDS011;26196;52.302;10.572;2022-07-23T04:33:48;3.80;;;2.30;;
40489;SDS011;26196;52.302;10.572;2022-07-23T04:37:48;3.80;;;2.42;;
40489;SDS011;26196;52.302;10.572;2022-07-23T04:41:49;4.38;;;2.80;;
40489;SDS011;26196;52.302;10.572;2022-07-23T04:45:49;5.82;;;2.60;;
40489;SDS011;26196;52.302;10.572;2022-07-23T04:49:49;3.25;;;2.85;;
40489;SDS011;26196;52.302;10.572;2022-07-23T04:53:50;2.90;;;2.38;;
40489;SDS011;26196;52.302;10.572;2022-07-23T04:57:51;6.72;;;3.08;;
40489;SDS011;26196;52.302;10.572;2022-07-23T05:01:51;4.03;;;2.70;;
40489;SDS011;26196;52.302;10.572;2022-07-23T05:05:52;4.10;;;2.58;;
40489;SDS011;26196;52.302;10.572;2022-07-23T05:09:52;3.40;;;3.00;;
40489;SDS011;26196;52.302;10.572;2022-07-23T05:13:53;4.30;;;2.63;;
40489;SDS011;26196;52.302;10.572;2022-07-23T05:17:53;4.82;;;2.78;;
40489;SDS011;26196;52.302;10.572;2022-07-23T05:21:54;5.03;;;2.85;;
40489;SDS011;26196;52.302;10.572;2022-07-23T05:25:54;3.78;;;2.85;;
40489;SDS011;26196;52.302;10.572;2022-07-23T05:29:55;2.72;;;2.05;;
40489;SDS011;26196;52.302;10.572;2022-07-23T05:33:55;5.10;;;2.55;;
40489;SDS011;26196;52.302;10.572;2022-07-23T05:37:55;4.00;;;2.70;;
40489;SDS011;26196;52.302;10.572;2022-07-23T05:41:56;3.78;;;2.50;;
40489;SDS011;26196;52.302;10.572;2022-07-23T05:45:57;4.22;;;2.63;;
40489;SDS011;26196;52.302;10.572;2022-07-23T05:49:57;9.05;;;3.25;;
40489;SDS011;26196;52.302;10.572;2022-07-23T05:53:57;8.45;;;2.95;;
40489;SDS011;26196;52.302;10.572;2022-07-23T05:57:58;10.18;;;4.28;;
40489;SDS011;26196;52.302;10.572;2022-07-23T06:01:59;8.02;;;3.38;;
40489;SDS011;26196;52.302;10.572;2022-07-23T06:06:00;5.25;;;3.13;;
40489;SDS011;26196;52.302;10.572;2022-07-23T06:10:00;7.20;;;2.83;;
40489;SDS011;26196;52.302;10.572;2022-07-23T06:14:01;6.13;;;2.80;;
40489;SDS011;26196;52.302;10.572;2022-07-23T06:18:01;4.93;;;2.78;;
40489;SDS011;26196;52.302;10.572;2022-07-23T06:22:02;8.38;;;3.30;;
40489;SDS011;26196;52.302;10.572;2022-07-23T06:26:02;5.85;;;3.67;;
40489;SDS011;26196;52.302;10.572;2022-07-23T06:30:03;12.38;;;3.90;;
40489;SDS011;26196;52.302;10.572;2022-07-23T06:34:04;10.73;;;3.60;;
40489;SDS011;26196;52.302;10.572;2022-07-23T06:38:04;9.75;;;4.38;;
40489;SDS011;26196;52.302;10.572;2022-07-23T06:42:05;14.13;;;3.78;;
40489;SDS011;26196;52.302;10.572;2022-07-23T06:46:05;9.80;;;3.53;;
40489;SDS011;26196;52.302;10.572;2022-07-23T06:50:06;8.65;;;3.92;;
40489;SDS011;26196;52.302;10.572;2022-07-23T06:54:06;8.07;;;3.35;;
40489;SDS011;26196;52.302;10.572;2022-07-23T06:58:07;11.57;;;3.35;;
40489;SDS011;26196;52.302;10.572;2022-07-23T07:02:09;8.43;;;3.20;;
40489;SDS011;26196;52.302;10.572;2022-07-23T07:06:09;9.70;;;3.92;;
40489;SDS011;26196;52.302;10.572;2022-07-23T07:10:10;13.07;;;4.35;;
40489;SDS011;26196;52.302;10.572;2022-07-23T07:14:10;7.28;;;2.97;;
40489;SDS011;26196;52.302;10.572;2022-07-23T07:18:11;5.28;;;2.83;;
40489;SDS011;26196;52.302;10.572;2022-07-23T07:22:12;7.47;;;2.95;;
40489;SDS011;26196;52.302;10.572;2022-07-23T07:26:12;6.57;;;2.65;;
40489;SDS011;26196;52.302;10.572;2022-07-23T07:30:13;7.13;;;2.80;;
40489;SDS011;26196;52.302;10.572;2022-07-23T07:34:14;8.23;;;2.58;;
40489;SDS011;26196;52.302;10.572;2022-07-23T07:38:14;12.43;;;3.40;;
40489;SDS011;26196;52.302;10.572;2022-07-23T07:42:15;7.45;;;3.30;;
40489;SDS011;26196;52.302;10.572;2022-07-23T07:46:15;9.88;;;2.88;;
40489;SDS011;26196;52.302;10.572;2022-07-23T07:50:16;6.60;;;2.75;;
40489;SDS011;26196;52.302;10.572;2022-07-23T07:54:16;10.02;;;3.05;;
40489;SDS011;26196;52.302;10.572;2022-07-23T07:58:17;4.88;;;2.25;;
40489;SDS011;26196;52.302;10.572;2022-07-23T08:02:17;6.47;;;2.58;;
40489;SDS011;26196;52.302;10.572;2022-07-23T08:06:18;3.55;;;2.08;;
40489;SDS011;26196;52.302;10.572;2022-07-23T08:10:18;4.93;;;2.10;;
40489;SDS011;26196;52.302;10.572;2022-07-23T08:14:19;7.68;;;2.40;;
40489;SDS011;26196;52.302;10.572;2022-07-23T08:18:20;3.28;;;1.73;;
40489;SDS011;26196;52.302;10.572;2022-07-23T08:22:20;4.43;;;1.75;;
40489;SDS011;26196;52.302;10.572;2022-07-23T08:26:21;5.45;;;1.63;;
40489;SDS011;26196;52.302;10.572;2022-07-23T08:30:21;3.60;;;2.38;;
40489;SDS011;26196;52.302;10.572;2022-07-23T08:34:22;4.78;;;1.88;;
40489;SDS011;26196;52.302;10.572;2022-07-23T08:38:23;5.95;;;2.25;;
40489;SDS011;26196;52.302;10.572;2022-07-23T08:42:25;3.00;;;1.67;;
40489;SDS011;26196;52.302;10.572;2022-07-23T08:46:25;4.38;;;2.08;;
40489;SDS011;26196;52.302;10.572;2022-07-23T08:50:27;4.45;;;1.52;;
40489;SDS011;26196;52.302;10.572;2022-07-23T08:54:28;3.80;;;1.13;;
40489;SDS011;26196;52.302;10.572;2022-07-23T08:58:28;3.85;;;1.50;;
40489;SDS011;26196;52.302;10.572;2022-07-23T09:02:30;4.88;;;1.30;;
40489;SDS011;26196;52.302;10.572;2022-07-23T09:06:31;5.70;;;1.60;;
40489;SDS011;26196;52.302;10.572;2022-07-23T09:10:53;4.20;;;1.80;;
40489;SDS011;26196;52.302;10.572;2022-07-23T09:14:54;3.20;;;1.10;;
40489;SDS011;26196;52.302;10.572;2022-07-23T09:19:03;3.67;;;1.40;;
40489;SDS011;26196;52.302;10.572;2022-07-23T09:23:05;3.72;;;1.10;;
40489;SDS011;26196;52.302;10.572;2022-07-23T09:27:05;5.82;;;1.92;;
40489;SDS011;26196;52.302;10.572;2022-07-23T09:31:06;2.60;;;1.40;;
40489;SDS011;26196;52.302;10.572;2022-07-23T09:39:09;4.20;;;1.10;;
40489;SDS011;26196;52.302;10.572;2022-07-23T09:43:11;4.65;;;1.10;;
40489;SDS011;26196;52.302;10.572;2022-07-23T09:47:12;5.40;;;1.60;;
40489;SDS011;26196;52.302;10.572;2022-07-23T09:51:13;3.20;;;1.10;;
40489;SDS011;26196;52.302;10.572;2022-07-23T09:55:18;1.83;;;0.85;;
40489;SDS011;26196;52.302;10.572;2022-07-23T09:59:20;3.33;;;1.67;;
40489;SDS011;26196;52.302;10.572;2022-07-23T10:03:24;4.32;;;1.27;;
40489;SDS011;26196;52.302;10.572;2022-07-23T10:07:26;3.88;;;1.23;;
40489;SDS011;26196;52.302;10.572;2022-07-23T10:11:30;2.70;;;0.70;;
40489;SDS011;26196;52.302;10.572;2022-07-23T10:15:32;3.40;;;1.00;;
40489;SDS011;26196;52.302;10.572;2022-07-23T10:19:33;4.35;;;1.55;;
40489;SDS011;26196;52.302;10.572;2022-07-23T10:23:46;3.53;;;1.00;;
40489;SDS011;26196;52.302;10.572;2022-07-23T10:32:28;3.40;;;1.02;;
40489;SDS011;26196;52.302;10.572;2022-07-23T10:36:53;2.92;;;0.98;;
40489;SDS011;26196;52.302;10.572;2022-07-23T10:41:00;2.25;;;1.20;;
40489;SDS011;26196;52.302;10.572;2022-07-23T10:45:21;1.85;;;0.90;;
40489;SDS011;26196;52.302;10.572;2022-07-23T10:49:33;3.83;;;1.10;;
40489;SDS011;26196;52.302;10.572;2022-07-23T10:57:49;3.03;;;1.13;;
40489;SDS011;26196;52.302;10.572;2022-07-23T11:01:50;1.13;;;0.93;;
40489;SDS011;26196;52.302;10.572;2022-07-23T11:05:52;3.17;;;0.80;;
40489;SDS011;26196;52.302;10.572;2022-07-23T11:09:53;1.20;;;0.73;;
40489;SDS011;26196;52.302;10.572;2022-07-23T11:13:54;2.45;;;0.70;;
40489;SDS011;26196;52.302;10.572;2022-07-23T11:21:55;1.85;;;1.15;;
40489;SDS011;26196;52.302;10.572;2022-07-23T11:25:56;1.80;;;1.30;;
40489;SDS011;26196;52.302;10.572;2022-07-23T11:29:57;2.17;;;1.40;;
40489;SDS011;26196;52.302;10.572;2022-07-23T11:38:35;2.58;;;1.42;;
40489;SDS011;26196;52.302;10.572;2022-07-23T11:42:39;2.55;;;1.13;;
40489;SDS011;26196;52.302;10.572;2022-07-23T11:47:01;2.72;;;1.17;;
40489;SDS011;26196;52.302;10.572;2022-07-23T11:51:04;5.00;;;1.60;;
40489;SDS011;26196;52.302;10.572;2022-07-23T11:55:08;2.95;;;1.33;;
40489;SDS011;26196;52.302;10.572;2022-07-23T11:59:10;2.35;;;1.08;;
40489;SDS011;26196;52.302;10.572;2022-07-23T12:03:11;13.07;;;2.72;;
40489;SDS011;26196;52.302;10.572;2022-07-23T12:11:39;8.48;;;1.80;;
40489;SDS011;26196;52.302;10.572;2022-07-23T12:15:40;4.90;;;1.40;;
40489;SDS011;26196;52.302;10.572;2022-07-23T12:19:45;6.53;;;1.27;;
40489;SDS011;26196;52.302;10.572;2022-07-23T12:23:48;4.68;;;1.60;;
40489;SDS011;26196;52.302;10.572;2022-07-23T12:28:08;2.55;;;1.50;;
40489;SDS011;26196;52.302;10.572;2022-07-23T12:32:22;3.10;;;1.13;;
40489;SDS011;26196;52.302;10.572;2022-07-23T12:36:24;5.28;;;1.42;;
40489;SDS011;26196;52.302;10.572;2022-07-23T12:45:07;1.90;;;0.88;;
40489;SDS011;26196;52.302;10.572;2022-07-23T12:49:11;2.10;;;0.70;;
40489;SDS011;26196;52.302;10.572;2022-07-23T12:57:45;2.33;;;0.90;;
40489;SDS011;26196;52.302;10.572;2022-07-23T13:01:56;1.80;;;0.82;;
40489;SDS011;26196;52.302;10.572;2022-07-23T13:06:01;7.25;;;1.00;;
40489;SDS011;26196;52.302;10.572;2022-07-23T13:10:04;1.95;;;0.80;;
40489;SDS011;26196;52.302;10.572;2022-07-23T13:14:04;1.90;;;0.80;;
40489;SDS011;26196;52.302;10.572;2022-07-23T13:18:05;0.70;;;0.40;;
40489;SDS011;26196;52.302;10.572;2022-07-23T13:22:05;1.52;;;0.60;;
40489;SDS011;26196;52.302;10.572;2022-07-23T13:26:06;1.80;;;0.60;;
40489;SDS011;26196;52.302;10.572;2022-07-23T13:30:06;0.70;;;0.50;;
40489;SDS011;26196;52.302;10.572;2022-07-23T13:34:09;1.50;;;0.65;;
40489;SDS011;26196;52.302;10.572;2022-07-23T13:38:09;1.17;;;0.70;;
40489;SDS011;26196;52.302;10.572;2022-07-23T13:42:10;1.42;;;0.50;;
40489;SDS011;26196;52.302;10.572;2022-07-23T13:46:10;0.80;;;0.40;;
40489;SDS011;26196;52.302;10.572;2022-07-23T13:50:11;2.95;;;0.43;;
40489;SDS011;26196;52.302;10.572;2022-07-23T13:54:11;2.47;;;0.70;;
40489;SDS011;26196;52.302;10.572;2022-07-23T13:58:12;0.43;;;0.32;;
40489;SDS011;26196;52.302;10.572;2022-07-23T14:02:14;0.65;;;0.50;;
40489;SDS011;26196;52.302;10.572;2022-07-23T14:06:16;1.17;;;0.50;;
40489;SDS011;26196;52.302;10.572;2022-07-23T14:10:19;0.60;;;0.55;;
40489;SDS011;26196;52.302;10.572;2022-07-23T14:14:21;0.70;;;0.40;;
40489;SDS011;26196;52.302;10.572;2022-07-23T14:18:22;0.40;;;0.40;;
40489;SDS011;26196;52.302;10.572;2022-07-23T14:22:22;4.32;;;1.15;;
40489;SDS011;26196;52.302;10.572;2022-07-23T14:26:23;1.33;;;0.50;;
40489;SDS011;26196;52.302;10.572;2022-07-23T14:30:23;0.32;;;0.30;;
40489;SDS011;26196;52.302;10.572;2022-07-23T14:34:24;0.93;;;0.30;;
40489;SDS011;26196;52.302;10.572;2022-07-23T14:38:25;0.28;;;0.22;;
40489;SDS011;26196;52.302;10.572;2022-07-23T14:42:27;0.73;;;0.40;;
40489;SDS011;26196;52.302;10.572;2022-07-23T14:46:27;0.75;;;0.40;;
40489;SDS011;26196;52.302;10.572;2022-07-23T14:50:28;1.23;;;0.50;;
40489;SDS011;26196;52.302;10.572;2022-07-23T14:54:29;0.70;;;0.20;;
40489;SDS011;26196;52.302;10.572;2022-07-23T14:58:30;0.63;;;0.57;;
40489;SDS011;26196;52.302;10.572;2022-07-23T15:02:30;0.95;;;0.20;;
40489;SDS011;26196;52.302;10.572;2022-07-23T15:06:31;1.00;;;0.30;;
40489;SDS011;26196;52.302;10.572;2022-07-23T15:10:32;2.33;;;0.50;;
40489;SDS011;26196;52.302;10.572;2022-07-23T15:14:33;1.40;;;0.30;;
40489;SDS011;26196;52.302;10.572;2022-07-23T15:18:33;0.77;;;0.20;;
40489;SDS011;26196;52.302;10.572;2022-07-23T15:22:34;1.15;;;0.30;;
40489;SDS011;26196;52.302;10.572;2022-07-23T15:26:34;0.95;;;0.20;;
40489;SDS011;26196;52.302;10.572;2022-07-23T15:30:35;0.80;;;0.20;;
40489;SDS011;26196;52.302;10.572;2022-07-23T15:34:36;0.40;;;0.20;;
40489;SDS011;26196;52.302;10.572;2022-07-23T15:38:37;0.82;;;0.22;;
40489;SDS011;26196;52.302;10.572;2022-07-23T15:42:38;0.38;;;0.20;;
40489;SDS011;26196;52.302;10.572;2022-07-23T15:46:38;1.05;;;0.30;;
40489;SDS011;26196;52.302;10.572;2022-07-23T15:50:39;1.20;;;0.28;;
40489;SDS011;26196;52.302;10.572;2022-07-23T15:54:40;1.85;;;0.30;;
40489;SDS011;26196;52.302;10.572;2022-07-23T15:58:41;1.30;;;0.40;;
40489;SDS011;26196;52.302;10.572;2022-07-23T16:02:41;0.93;;;0.30;;
40489;SDS011;26196;52.302;10.572;2022-07-23T16:06:41;0.40;;;0.30;;
40489;SDS011;26196;52.302;10.572;2022-07-23T16:10:42;1.55;;;0.40;;
40489;SDS011;26196;52.302;10.572;2022-07-23T16:14:43;2.10;;;0.25;;
40489;SDS011;26196;52.302;10.572;2022-07-23T16:18:44;3.22;;;0.40;;
40489;SDS011;26196;52.302;10.572;2022-07-23T16:22:48;1.77;;;0.20;;
40489;SDS011;26196;52.302;10.572;2022-07-23T16:26:48;1.02;;;0.20;;
40489;SDS011;26196;52.302;10.572;2022-07-23T16:30:49;0.90;;;0.30;;
40489;SDS011;26196;52.302;10.572;2022-07-23T16:34:49;1.88;;;0.47;;
40489;SDS011;26196;52.302;10.572;2022-07-23T16:38:50;5.35;;;0.40;;
40489;SDS011;26196;52.302;10.572;2022-07-23T16:42:50;0.80;;;0.38;;
40489;SDS011;26196;52.302;10.572;2022-07-23T16:46:51;1.65;;;0.40;;
40489;SDS011;26196;52.302;10.572;2022-07-23T16:50:51;0.70;;;0.20;;
40489;SDS011;26196;52.302;10.572;2022-07-23T16:54:52;1.48;;;0.40;;
40489;SDS011;26196;52.302;10.572;2022-07-23T16:58:52;1.05;;;0.57;;
40489;SDS011;26196;52.302;10.572;2022-07-23T17:02:53;1.50;;;0.25;;
40489;SDS011;26196;52.302;10.572;2022-07-23T17:06:53;1.80;;;0.68;;
40489;SDS011;26196;52.302;10.572;2022-07-23T17:10:55;3.60;;;0.35;;
40489;SDS011;26196;52.302;10.572;2022-07-23T17:14:56;2.28;;;0.38;;
40489;SDS011;26196;52.302;10.572;2022-07-23T17:18:57;4.43;;;0.93;;
40489;SDS011;26196;52.302;10.572;2022-07-23T17:22:57;1.20;;;0.40;;
40489;SDS011;26196;52.302;10.572;2022-07-23T17:26:57;2.53;;;0.20;;
40489;SDS011;26196;52.302;10.572;2022-07-23T17:30:59;1.05;;;0.30;;
40489;SDS011;26196;52.302;10.572;2022-07-23T17:34:59;2.47;;;0.40;;
40489;SDS011;26196;52.302;10.572;2022-07-23T17:39:00;1.13;;;0.40;;
40489;SDS011;26196;52.302;10.572;2022-07-23T17:43:00;0.35;;;0.22;;
40489;SDS011;26196;52.302;10.572;2022-07-23T17:47:01;0.20;;;0.20;;
40489;SDS011;26196;52.302;10.572;2022-07-23T17:51:01;0.80;;;0.28;;
40489;SDS011;26196;52.302;10.572;2022-07-23T17:55:02;2.28;;;0.90;;
40489;SDS011;26196;52.302;10.572;2022-07-23T17:59:03;1.20;;;0.25;;
40489;SDS011;26196;52.302;10.572;2022-07-23T18:03:03;1.00;;;0.25;;
40489;SDS011;26196;52.302;10.572;2022-07-23T18:07:04;2.88;;;0.40;;
40489;SDS011;26196;52.302;10.572;2022-07-23T18:11:04;1.08;;;0.30;;
40489;SDS011;26196;52.302;10.572;2022-07-23T18:15:05;2.38;;;0.38;;
40489;SDS011;26196;52.302;10.572;2022-07-23T18:19:06;0.50;;;0.28;;
40489;SDS011;26196;52.302;10.572;2022-07-23T18:23:07;1.38;;;0.40;;
40489;SDS011;26196;52.302;10.572;2022-07-23T18:27:07;3.58;;;0.38;;
40489;SDS011;26196;52.302;10.572;2022-07-23T18:31:08;1.33;;;0.57;;
40489;SDS011;26196;52.302;10.572;2022-07-23T18:35:09;5.75;;;0.98;;
40489;SDS011;26196;52.302;10.572;2022-07-23T18:39:09;4.03;;;0.93;;
40489;SDS011;26196;52.302;10.572;2022-07-23T18:43:10;2.83;;;0.50;;
40489;SDS011;26196;52.302;10.572;2022-07-23T18:47:10;3.75;;;0.90;;
40489;SDS011;26196;52.302;10.572;2022-07-23T18:51:11;3.75;;;0.80;;
40489;SDS011;26196;52.302;10.572;2022-07-23T18:55:11;5.50;;;0.73;;
40489;SDS011;26196;52.302;10.572;2022-07-23T18:59:12;1.08;;;0.35;;
40489;SDS011;26196;52.302;10.572;2022-07-23T19:03:12;5.45;;;0.50;;
40489;SDS011;26196;52.302;10.572;2022-07-23T19:07:13;3.08;;;0.65;;
40489;SDS011;26196;52.302;10.572;2022-07-23T19:11:13;2.83;;;0.60;;
40489;SDS011;26196;52.302;10.572;2022-07-23T19:15:14;2.90;;;0.50;;
40489;SDS011;26196;52.302;10.572;2022-07-23T19:19:15;2.30;;;0.40;;
40489;SDS011;26196;52.302;10.572;2022-07-23T19:23:16;7.57;;;0.77;;
40489;SDS011;26196;52.302;10.572;2022-07-23T19:27:17;5.47;;;1.13;;
40489;SDS011;26196;52.302;10.572;2022-07-23T19:31:17;5.13;;;0.60;;
40489;SDS011;26196;52.302;10.572;2022-07-23T19:35:18;7.82;;;0.57;;
40489;SDS011;26196;52.302;10.572;2022-07-23T19:39:19;10.15;;;0.90;;
40489;SDS011;26196;52.302;10.572;2022-07-23T19:43:19;3.08;;;0.70;;
40489;SDS011;26196;52.302;10.572;2022-07-23T19:47:20;5.45;;;0.68;;
40489;SDS011;26196;52.302;10.572;2022-07-23T19:51:20;11.50;;;0.73;;
40489;SDS011;26196;52.302;10.572;2022-07-23T19:55:21;3.13;;;0.45;;
40489;SDS011;26196;52.302;10.572;2022-07-23T19:59:22;3.20;;;0.40;;
40489;SDS011;26196;52.302;10.572;2022-07-23T20:03:22;5.72;;;0.85;;
40489;SDS011;26196;52.302;10.572;2022-07-23T20:07:23;4.65;;;0.45;;
40489;SDS011;26196;52.302;10.572;2022-07-23T20:11:23;1.85;;;0.40;;
40489;SDS011;26196;52.302;10.572;2022-07-23T20:15:24;2.10;;;0.52;;
40489;SDS011;26196;52.302;10.572;2022-07-23T20:19:25;2.38;;;0.80;;
40489;SDS011;26196;52.302;10.572;2022-07-23T20:23:25;2.67;;;1.10;;
40489;SDS011;26196;52.302;10.572;2022-07-23T20:27:26;5.70;;;0.70;;
40489;SDS011;26196;52.302;10.572;2022-07-23T20:31:26;3.33;;;0.60;;
40489;SDS011;26196;52.302;10.572;2022-07-23T20:35:27;4.53;;;1.05;;
40489;SDS011;26196;52.302;10.572;2022-07-23T20:39:27;3.42;;;1.80;;
40489;SDS011;26196;52.302;10.572;2022-07-23T20:43:29;8.95;;;3.13;;
40489;SDS011;26196;52.302;10.572;2022-07-23T20:47:29;5.45;;;2.67;;
40489;SDS011;26196;52.302;10.572;2022-07-23T20:51:30;11.75;;;3.70;;
40489;SDS011;26196;52.302;10.572;2022-07-23T20:55:30;7.45;;;3.38;;
40489;SDS011;26196;52.302;10.572;2022-07-23T20:59:31;6.47;;;3.08;;
40489;SDS011;26196;52.302;10.572;2022-07-23T21:03:31;8.18;;;3.10;;
40489;SDS011;26196;52.302;10.572;2022-07-23T21:07:32;10.43;;;2.67;;
40489;SDS011;26196;52.302;10.572;2022-07-23T21:11:33;11.65;;;3.17;;
40489;SDS011;26196;52.302;10.572;2022-07-23T21:15:34;9.18;;;3.05;;
40489;SDS011;26196;52.302;10.572;2022-07-23T21:19:35;9.20;;;3.40;;
40489;SDS011;26196;52.302;10.572;2022-07-23T21:23:35;6.68;;;3.70;;
40489;SDS011;26196;52.302;10.572;2022-07-23T21:27:37;19.33;;;3.58;;
40489;SDS011;26196;52.302;10.572;2022-07-23T21:31:39;10.23;;;2.97;;
40489;SDS011;26196;52.302;10.572;2022-07-23T21:35:39;10.30;;;2.90;;
40489;SDS011;26196;52.302;10.572;2022-07-23T21:39:40;14.45;;;2.80;;
40489;SDS011;26196;52.302;10.572;2022-07-23T21:43:40;8.45;;;2.60;;
40489;SDS011;26196;52.302;10.572;2022-07-23T21:47:41;5.20;;;2.70;;
40489;SDS011;26196;52.302;10.572;2022-07-23T21:51:41;6.18;;;2.90;;
40489;SDS011;26196;52.302;10.572;2022-07-23T21:55:44;7.85;;;2.35;;
40489;SDS011;26196;52.302;10.572;2022-07-23T21:59:44;4.13;;;2.22;;
40489;SDS011;26196;52.302;10.572;2022-07-23T22:03:49;5.03;;;2.50;;
40489;SDS011;26196;52.302;10.572;2022-07-23T22:07:49;8.65;;;3.08;;
40489;SDS011;26196;52.302;10.572;2022-07-23T22:11:50;4.85;;;2.67;;
40489;SDS011;26196;52.302;10.572;2022-07-23T22:15:50;6.28;;;2.97;;
40489;SDS011;26196;52.302;10.572;2022-07-23T22:19:51;8.15;;;4.47;;
40489;SDS011;26196;52.302;10.572;2022-07-23T22:23:51;4.00;;;2.95;;
40489;SDS011;26196;52.302;10.572;2022-07-23T22:27:52;5.05;;;2.85;;
40489;SDS011;26196;52.302;10.572;2022-07-23T22:31:52;3.92;;;2.80;;
40489;SDS011;26196;52.302;10.572;2022-07-23T22:35:53;5.55;;;2.30;;
40489;SDS011;26196;52.302;10.572;2022-07-23T22:39:53;3.13;;;2.35;;
40489;SDS011;26196;52.302;10.572;2022-07-23T22:43:53;4.38;;;1.70;;
40489;SDS011;26196;52.302;10.572;2022-07-23T22:47:54;4.85;;;2.42;;
40489;SDS011;26196;52.302;10.572;2022-07-23T22:51:54;4.38;;;1.60;;
40489;SDS011;26196;52.302;10.572;2022-07-23T22:55:55;5.03;;;1.85;;
40489;SDS011;26196;52.302;10.572;2022-07-23T22:59:56;1.92;;;1.20;;
40489;SDS011;26196;52.302;10.572;2022-07-23T23:03:56;4.15;;;1.42;;
40489;SDS011;26196;52.302;10.572;2022-07-23T23:07:56;5.13;;;1.15;;
40489;SDS011;26196;52.302;10.572;2022-07-23T23:11:57;2.20;;;1.05;;
40489;SDS011;26196;52.302;10.572;2022-07-23T23:15:57;1.75;;;1.20;;
40489;SDS011;26196;52.302;10.572;2022-07-23T23:19:58;1.23;;;0.82;;
40489;SDS011;26196;52.302;10.572;2022-07-23T23:24:00;3.70;;;1.35;;
40489;SDS011;26196;52.302;10.572;2022-07-23T23:28:00;1.67;;;0.82;;
40489;SDS011;26196;52.302;10.572;2022-07-23T23:32:01;1.25;;;0.75;;
40489;SDS011;26196;52.302;10.572;2022-07-23T23:36:01;3.50;;;1.67;;
40489;SDS011;26196;52.302;10.572;2022-07-23T23:40:03;1.10;;;0.60;;
40489;SDS011;26196;52.302;10.572;2022-07-23T23:44:04;2.33;;;0.65;;
40489;SDS011;26196;52.302;10.572;2022-07-23T23:48:05;1.95;;;0.95;;
40489;SDS011;26196;52.302;10.572;2022-07-23T23:52:06;1.73;;;1.00;;
40489;SDS011;26196;52.302;10.572;2022-07-23T23:56:06;5.10;;;1.17;;
